LFBD/BOD METAR and TAF weather

Enter ICAO airport designator
Station Type Date Time Source
LFBD METAR 2019/04/20 18:00 UTC NOAA

LFBD 201800Z AUTO 03010KT CAVOK 23/05 Q1019 TEMPO 05015G25KT 3000 TSRA BKN050CB


Station Type Date Time Source
LFBD Decoded METAR 2019/04/20 18:00 UTC NOAA

Bordeaux / Merignac, France (LFBD) 44-50N 000-42W 61M
Apr 20, 2019 - 02:00 PM EDT / 2019.04.20 1800 UTC
Wind: from the NNE (030 degrees) at 12 MPH (10 KT):0
Visibility: greater than 7 mile(s):0
Weather: Cumulonimbus clouds observed
Temperature: 73 F (23 C)
Dew Point: 41 F (5 C)
Relative Humidity: 31%
Pressure (altimeter): 30.09 in. Hg (1019 hPa)
ob: LFBD 201800Z AUTO 03010KT CAVOK 23/05 Q1019 TEMPO 05015G25KT 3000 TSRA BKN050CB
cycle: 18

Station Type Date Time Source
LFBD TAF 2019/04/20 18:21 UTC NOAA

TAF TAF LFBD 201700Z 2018/2124 06008KT CAVOK TX22/2018Z TN11/2106Z
TEMPO 2019/2022 05015G25KT SHRA BKN050TCU PROB30
TEMPO 2019/2022 3000 TSRA BKN050CB
TEMPO 2102/2111 -SHRA
TEMPO 2111/2118 10015G25KT 4000 SHRA BKN050TCU

Example: see airport list